Time;durP1;ratioP1;P1;durP2;ratioP2;P2;SDS_P1;SDS_P2;PMS_P1;PMS_P2;Temp;Humidity;BMP_temperature;BMP_pressure;BME280_temperature;BME280_humidity;BME280_pressure;Samples;Min_cycle;Max_cycle;Signal;HPM_P1;HPM_P2
2022/01/15 01:48:47;;;;;;;123.25;90.65;;;2.50;99.90;;;;;;1274018;22;20480;-88
2022/01/15 02:06:07;;;;;;;121.00;77.90;;;2.40;99.90;;;;;;4936726;29;20271;-88
2022/01/15 02:09:26;;;;;;;;;;;;;;;;;;;;;
2022/01/15 02:52:56;;;;;;;118.70;98.22;;;2.40;99.90;;;;;;4868710;22;20231;-88
2022/01/15 02:56:19;;;;;;;;;;;;;;;;;;;;;
2022/01/15 03:52:38;;;;;;;127.57;106.18;;;2.30;99.90;;;;;;5057805;28;20211;-88
2022/01/15 04:35:14;;;;;;;109.72;87.05;;;2.20;99.90;;;;;;5057821;28;20219;-88
2022/01/15 04:38:07;;;;;;;122.38;103.90;;;2.20;99.90;;;;;;5056617;28;20176;-87
2022/01/15 04:41:28;;;;;;;104.95;81.18;;;2.20;99.90;;;;;;4971232;28;20174;-88
2022/01/15 04:47:38;;;;;;;111.13;85.93;;;2.20;99.90;;;;;;5056597;28;20175;-87
2022/01/15 04:51:14;;;;;;;;;;;;;;;;;;;;;
2022/01/15 05:06:10;;;;;;;104.80;77.55;;;2.00;99.90;;;;;;5004987;28;20219;-87
2022/01/15 05:09:02;;;;;;;100.95;73.63;;;2.00;99.90;;;;;;4973168;28;20253;-87
2022/01/15 05:26:01;;;;;;;94.93;58.95;;;2.00;99.90;;;;;;4885996;29;20209;-88
2022/01/15 05:29:23;;;;;;;;;;;;;;;;;;;;;
2022/01/15 07:30:09;;;;;;;112.88;98.25;;;2.00;99.90;;;;;;3750149;22;20235;-90
2022/01/15 07:37:15;;;;;;;;;;;;;;;;;;;;;
2022/01/15 07:41:04;;;;;;;;;;;;;;;;;;;;;
2022/01/15 08:09:49;;;;;;;127.43;114.85;;;2.20;99.90;;;;;;5293326;22;20230;-91
2022/01/15 08:13:33;;;;;;;;;;;;;;;;;;;;;
2022/01/15 08:42:28;;;;;;;128.40;115.80;;;2.30;99.90;;;;;;4170817;22;20298;-90
2022/01/15 09:43:23;;;;;;;96.22;73.00;;;2.60;99.90;;;;;;5040958;28;20212;-90
2022/01/15 09:46:18;;;;;;;94.03;73.88;;;2.60;99.90;;;;;;5024234;28;20553;-90
2022/01/15 10:35:47;;;;;;;95.97;74.47;;;3.10;99.90;;;;;;1176504;22;20230;-90
2022/01/15 10:38:58;;;;;;;92.55;61.67;;;3.10;99.90;;;;;;5044514;28;20175;-90
2022/01/15 10:42:24;;;;;;;94.20;71.30;;;3.10;99.90;;;;;;5045512;28;20180;-90
2022/01/15 10:45:34;;;;;;;94.63;75.18;;;3.10;99.90;;;;;;4956312;28;20385;-91
2022/01/15 10:49:10;;;;;;;;;;;;;;;;;;;;;
2022/01/15 13:29:11;;;;;;;90.10;60.72;;;3.70;99.90;;;;;;5225589;22;20224;-86
2022/01/15 13:31:39;;;;;;;90.00;57.17;;;3.70;99.90;;;;;;5059485;28;20168;-85
2022/01/15 13:34:48;;;;;;;94.32;74.28;;;3.70;99.90;;;;;;5060481;28;20177;-86
2022/01/15 13:37:22;;;;;;;95.45;59.15;;;3.80;99.90;;;;;;5016972;28;20172;-85
2022/01/15 13:39:49;;;;;;;97.28;77.72;;;3.80;99.90;;;;;;5058827;28;20188;-86
2022/01/15 13:42:20;;;;;;;94.28;71.43;;;3.70;99.90;;;;;;5058444;28;20179;-85
2022/01/15 13:44:46;;;;;;;93.55;66.40;;;3.70;99.90;;;;;;5058828;28;20761;-85
2022/01/15 13:47:18;;;;;;;96.67;78.67;;;3.80;99.90;;;;;;5057499;28;20243;-85
2022/01/15 13:55:29;;;;;;;87.40;57.28;;;3.80;99.90;;;;;;5058747;28;20188;-86
2022/01/15 13:58:22;;;;;;;100.70;70.88;;;3.90;99.90;;;;;;5057634;28;20165;-86
2022/01/15 14:00:50;;;;;;;99.15;71.40;;;3.90;99.90;;;;;;5043081;28;20631;-86
2022/01/15 14:03:25;;;;;;;92.78;69.10;;;3.90;99.90;;;;;;5059316;28;20160;-86
2022/01/15 14:06:01;;;;;;;95.00;70.63;;;3.90;99.90;;;;;;5059797;28;20183;-85
2022/01/15 14:08:27;;;;;;;93.97;67.50;;;3.90;99.90;;;;;;5059261;28;20184;-85
2022/01/15 14:10:53;;;;;;;103.60;87.65;;;3.90;99.90;;;;;;5058792;28;20167;-86
2022/01/15 14:13:18;;;;;;;125.83;113.57;;;3.90;99.90;;;;;;5058223;28;20164;-86
2022/01/15 14:16:29;;;;;;;101.57;79.30;;;3.90;99.90;;;;;;5058928;28;20426;-85
2022/01/15 14:19:25;;;;;;;90.03;60.92;;;3.80;99.90;;;;;;5052547;28;20663;-84
2022/01/15 14:21:53;;;;;;;98.05;71.85;;;3.80;99.90;;;;;;5059291;28;20168;-84
2022/01/15 14:24:26;;;;;;;97.93;75.95;;;3.80;99.90;;;;;;5058845;28;20219;-85
2022/01/15 14:26:58;;;;;;;90.45;63.10;;;3.90;99.90;;;;;;5059503;28;20563;-85
2022/01/15 14:29:26;;;;;;;91.25;64.25;;;3.90;99.90;;;;;;5059163;28;20204;-85
2022/01/15 14:31:52;;;;;;;103.82;81.43;;;3.90;99.90;;;;;;5059284;28;20243;-85
2022/01/15 14:34:24;;;;;;;94.57;71.07;;;3.90;99.90;;;;;;5059748;28;20184;-86
2022/01/15 14:36:50;;;;;;;97.85;73.80;;;3.80;99.90;;;;;;5057824;28;20257;-86
2022/01/15 14:39:17;;;;;;;93.72;68.60;;;3.80;99.90;;;;;;5057477;28;20172;-86
2022/01/15 14:41:43;;;;;;;99.65;76.88;;;3.80;99.90;;;;;;5058038;28;20172;-86
2022/01/15 14:44:09;;;;;;;92.72;65.10;;;3.80;99.90;;;;;;5058255;28;20184;-86
2022/01/15 14:46:34;;;;;;;98.10;81.07;;;3.80;99.90;;;;;;5057875;28;20169;-86
2022/01/15 14:49:01;;;;;;;86.63;56.33;;;3.80;99.90;;;;;;5056949;28;20216;-86
2022/01/15 14:51:30;;;;;;;91.15;57.85;;;3.70;99.90;;;;;;5057357;28;20191;-86
2022/01/15 14:53:56;;;;;;;96.90;70.53;;;3.70;99.90;;;;;;5058350;28;20180;-86
2022/01/15 14:56:25;;;;;;;97.10;78.47;;;3.80;99.90;;;;;;5058252;28;20310;-86
2022/01/15 14:58:54;;;;;;;93.95;74.80;;;3.70;99.90;;;;;;5058463;28;20176;-86
2022/01/15 15:01:24;;;;;;;92.18;66.18;;;3.70;99.90;;;;;;5057451;28;20175;-86
2022/01/15 15:03:50;;;;;;;96.38;72.55;;;3.80;99.90;;;;;;5057623;28;20185;-86
2022/01/15 15:06:17;;;;;;;94.13;70.38;;;3.70;99.90;;;;;;5061087;28;20179;-86
2022/01/15 15:08:43;;;;;;;95.63;76.57;;;3.60;99.90;;;;;;5061755;28;20188;-85
2022/01/15 15:11:15;;;;;;;91.00;64.97;;;3.70;99.90;;;;;;5061386;28;20186;-86
2022/01/15 15:13:41;;;;;;;96.35;66.75;;;3.70;99.90;;;;;;5061792;28;20180;-86
2022/01/15 15:16:09;;;;;;;95.32;67.22;;;3.70;99.90;;;;;;5061773;28;20181;-86
2022/01/15 15:18:37;;;;;;;94.22;60.38;;;3.60;99.90;;;;;;5060898;28;20164;-86
2022/01/15 15:21:03;;;;;;;93.78;70.20;;;3.60;99.90;;;;;;5061467;28;20168;-86
2022/01/15 15:23:30;;;;;;;99.45;75.20;;;3.50;99.90;;;;;;5062357;28;20188;-85
2022/01/15 15:25:59;;;;;;;95.30;70.57;;;3.50;99.90;;;;;;5061822;28;20218;-85
2022/01/15 15:28:24;;;;;;;90.32;66.80;;;3.50;99.90;;;;;;5060912;28;20563;-86
2022/01/15 15:30:50;;;;;;;105.47;87.57;;;3.50;99.90;;;;;;5060708;28;20416;-86
2022/01/15 15:33:16;;;;;;;98.20;83.17;;;3.50;99.90;;;;;;5060642;28;20411;-86
2022/01/15 15:35:45;;;;;;;90.43;60.20;;;3.50;99.90;;;;;;5059929;28;20733;-86
2022/01/15 15:38:10;;;;;;;97.47;83.68;;;3.40;99.90;;;;;;5061715;28;20164;-86
2022/01/15 15:40:36;;;;;;;97.93;83.73;;;3.40;99.90;;;;;;5060917;28;20173;-86
2022/01/15 15:43:02;;;;;;;97.10;76.17;;;3.40;99.90;;;;;;5060028;28;20175;-86
2022/01/15 15:45:31;;;;;;;98.63;72.33;;;3.40;99.90;;;;;;5060109;28;20464;-86
2022/01/15 15:47:57;;;;;;;90.55;58.35;;;3.40;99.90;;;;;;5059994;28;20419;-86
2022/01/15 15:50:27;;;;;;;94.63;73.90;;;3.40;99.90;;;;;;5059699;28;20187;-86
2022/01/15 15:52:53;;;;;;;97.60;82.35;;;3.40;99.90;;;;;;5060339;28;20167;-86
2022/01/15 15:55:19;;;;;;;93.72;71.45;;;3.40;99.90;;;;;;5060391;28;20237;-86
2022/01/15 15:57:45;;;;;;;94.95;70.13;;;3.30;99.90;;;;;;5061489;28;20180;-86
2022/01/15 16:00:11;;;;;;;107.37;87.77;;;3.30;99.90;;;;;;5061734;28;20164;-86
2022/01/15 16:02:39;;;;;;;102.40;76.22;;;3.40;99.90;;;;;;5060095;28;20409;-86
2022/01/15 16:05:05;;;;;;;90.38;57.28;;;3.30;99.90;;;;;;5060926;28;20660;-86
2022/01/15 16:07:30;;;;;;;92.90;63.17;;;3.40;99.90;;;;;;5060922;28;20176;-85
2022/01/15 16:09:56;;;;;;;95.80;66.03;;;3.40;99.90;;;;;;5059590;28;20192;-85
2022/01/15 16:12:22;;;;;;;99.47;73.17;;;3.40;99.90;;;;;;5059118;28;20195;-85
2022/01/15 16:14:48;;;;;;;95.20;75.10;;;3.40;99.90;;;;;;5059596;28;20188;-85
2022/01/15 16:17:13;;;;;;;94.37;63.50;;;3.40;99.90;;;;;;5060220;28;20403;-86
2022/01/15 16:19:42;;;;;;;97.17;77.83;;;3.30;99.90;;;;;;5060646;28;20171;-85
2022/01/15 16:22:08;;;;;;;93.38;64.95;;;3.30;99.90;;;;;;5059982;28;20505;-85
2022/01/15 16:24:34;;;;;;;101.57;73.83;;;3.40;99.90;;;;;;5060752;28;20184;-85
2022/01/15 16:27:00;;;;;;;92.68;60.03;;;3.40;99.90;;;;;;5059144;28;20164;-85
2022/01/15 16:29:31;;;;;;;92.18;62.30;;;3.40;99.90;;;;;;5059954;28;20207;-85
2022/01/15 16:31:57;;;;;;;98.68;71.25;;;3.40;99.90;;;;;;5059367;28;20689;-85
2022/01/15 16:34:25;;;;;;;103.72;84.55;;;3.30;99.90;;;;;;5060488;28;20267;-85
2022/01/15 16:36:53;;;;;;;96.47;68.47;;;3.30;99.90;;;;;;5059333;28;20168;-86
2022/01/15 16:39:19;;;;;;;94.00;63.63;;;3.30;99.90;;;;;;5058820;28;20172;-85
2022/01/15 16:41:45;;;;;;;95.33;69.33;;;3.30;99.90;;;;;;5059454;28;20174;-85
2022/01/15 16:44:14;;;;;;;92.67;63.37;;;3.40;99.90;;;;;;5059272;28;20431;-85
2022/01/15 16:47:05;;;;;;;110.95;98.40;;;3.50;99.90;;;;;;5058381;28;20446;-85
2022/01/15 16:52:32;;;;;;;96.43;74.28;;;3.50;99.90;;;;;;5052960;28;20180;-85
2022/01/15 16:55:11;;;;;;;95.43;66.15;;;3.40;99.90;;;;;;5059727;28;20204;-85
2022/01/15 16:57:43;;;;;;;90.88;56.67;;;3.40;99.90;;;;;;5059570;28;20155;-85
2022/01/15 17:00:30;;;;;;;92.93;57.17;;;3.40;99.90;;;;;;5058232;28;20179;-85
2022/01/15 17:03:03;;;;;;;96.95;67.60;;;3.40;99.90;;;;;;5058937;28;20152;-85
2022/01/15 17:05:41;;;;;;;95.47;67.15;;;3.40;99.90;;;;;;5057021;28;20184;-85
2022/01/15 17:08:10;;;;;;;108.50;86.18;;;3.40;99.90;;;;;;5059093;28;20176;-85
2022/01/15 17:10:39;;;;;;;92.78;63.22;;;3.40;99.90;;;;;;5058799;28;20167;-85
2022/01/15 17:13:10;;;;;;;93.43;66.03;;;3.40;99.90;;;;;;5058699;28;20238;-85
2022/01/15 17:15:42;;;;;;;99.55;74.28;;;3.40;99.90;;;;;;5059118;28;20277;-85
2022/01/15 17:18:08;;;;;;;96.38;65.65;;;3.40;99.90;;;;;;5058802;28;20149;-85
2022/01/15 17:20:37;;;;;;;100.18;73.95;;;3.40;99.90;;;;;;5058476;28;20168;-85
2022/01/15 17:23:07;;;;;;;100.60;71.55;;;3.40;99.90;;;;;;5058704;28;20188;-85
2022/01/15 17:25:42;;;;;;;99.15;63.45;;;3.40;99.90;;;;;;5058528;28;20196;-85
2022/01/15 17:28:23;;;;;;;97.10;63.65;;;3.40;99.90;;;;;;5057601;28;20176;-85
2022/01/15 17:30:58;;;;;;;104.32;78.15;;;3.40;99.90;;;;;;5059352;28;20164;-86
2022/01/15 17:33:27;;;;;;;96.95;70.38;;;3.40;99.90;;;;;;5058301;28;20161;-85
2022/01/15 17:36:05;;;;;;;97.38;70.57;;;3.50;99.90;;;;;;5056519;28;20184;-85
2022/01/15 17:38:59;;;;;;;95.57;67.85;;;3.40;99.90;;;;;;5058547;28;20168;-85
2022/01/15 17:41:37;;;;;;;96.32;71.25;;;3.20;99.90;;;;;;5057153;28;20544;-85
2022/01/15 17:44:15;;;;;;;;;;;;;;;;;;;;;
2022/01/15 17:46:44;;;;;;;94.28;61.47;;;3.20;99.90;;;;;;5058481;28;20240;-85
2022/01/15 17:49:12;;;;;;;93.40;65.82;;;3.20;99.90;;;;;;5058017;28;20728;-85
2022/01/15 17:51:51;;;;;;;100.40;83.10;;;3.20;99.90;;;;;;5058387;28;20636;-85
2022/01/15 17:54:48;;;;;;;102.25;69.00;;;3.10;99.90;;;;;;5058483;28;20191;-85
2022/01/15 17:57:18;;;;;;;106.53;72.20;;;3.10;99.90;;;;;;5057918;28;20192;-87
2022/01/15 17:59:47;;;;;;;111.80;75.40;;;3.20;99.90;;;;;;5056548;28;20192;-85
2022/01/15 18:02:33;;;;;;;107.25;81.80;;;3.10;99.90;;;;;;5056792;28;20177;-85
2022/01/15 18:05:01;;;;;;;103.82;77.80;;;3.10;99.90;;;;;;5056736;28;20663;-85
2022/01/15 18:07:27;;;;;;;100.95;63.03;;;3.10;99.90;;;;;;5056795;28;20284;-85
2022/01/15 18:10:06;;;;;;;;;;;;;;;;;;;;;
2022/01/15 18:12:44;;;;;;;104.97;77.68;;;3.10;99.90;;;;;;5058604;28;20966;-85
2022/01/15 18:15:17;;;;;;;122.43;82.68;;;3.00;99.90;;;;;;5056356;28;20675;-85
2022/01/15 18:17:47;;;;;;;113.55;84.03;;;3.00;99.90;;;;;;5057130;28;20157;-85
2022/01/15 18:20:21;;;;;;;109.13;76.65;;;3.00;99.90;;;;;;5056472;28;20164;-85
2022/01/15 18:22:55;;;;;;;108.35;82.55;;;3.10;99.90;;;;;;5057474;28;20183;-85
2022/01/15 18:25:27;;;;;;;108.00;79.93;;;3.00;99.90;;;;;;5056369;28;20738;-85
2022/01/15 18:28:03;;;;;;;116.13;102.07;;;3.00;99.90;;;;;;5056216;28;20619;-85
2022/01/15 18:30:59;;;;;;;111.15;92.50;;;3.00;99.90;;;;;;5056339;28;20187;-85
2022/01/15 18:33:42;;;;;;;102.72;72.68;;;3.00;99.90;;;;;;5056706;28;20560;-85
2022/01/15 18:36:19;;;;;;;99.05;60.78;;;3.10;99.90;;;;;;5056867;28;20173;-85
2022/01/15 18:38:51;;;;;;;106.05;87.50;;;3.10;99.90;;;;;;5057748;28;20239;-85
2022/01/15 18:41:39;;;;;;;105.32;90.28;;;3.00;99.90;;;;;;5056468;28;20177;-85
2022/01/15 18:44:09;;;;;;;103.40;87.72;;;3.00;99.90;;;;;;5057861;28;20255;-85
2022/01/15 18:46:37;;;;;;;111.90;82.47;;;3.00;99.90;;;;;;5055822;28;20280;-85
2022/01/15 18:49:04;;;;;;;106.00;91.88;;;3.00;99.90;;;;;;5056514;28;20224;-86
2022/01/15 18:51:34;;;;;;;104.07;87.43;;;2.90;99.90;;;;;;5056726;28;20161;-85
2022/01/15 18:54:03;;;;;;;105.57;88.25;;;2.90;99.90;;;;;;5056065;28;20184;-85
2022/01/15 18:56:32;;;;;;;155.77;141.25;;;2.90;99.90;;;;;;5056595;28;20259;-85
2022/01/15 18:59:15;;;;;;;106.80;85.30;;;2.90;99.90;;;;;;5055794;28;20199;-85
2022/01/15 19:01:58;;;;;;;107.10;92.53;;;2.90;99.90;;;;;;5056211;28;20191;-85
2022/01/15 19:04:27;;;;;;;105.88;88.82;;;3.00;99.90;;;;;;5056773;28;20275;-85
2022/01/15 19:07:06;;;;;;;115.82;102.78;;;2.90;99.90;;;;;;5057522;28;20168;-85
2022/01/15 19:09:32;;;;;;;113.10;96.85;;;3.00;99.90;;;;;;5056975;28;20263;-85
2022/01/15 19:11:58;;;;;;;101.67;75.27;;;3.00;99.90;;;;;;5056576;28;20620;-85
2022/01/15 19:14:29;;;;;;;120.27;107.67;;;3.00;99.90;;;;;;5057039;28;20814;-85
2022/01/15 19:17:27;;;;;;;;;;;;;;;;;;;;;
2022/01/15 19:19:54;;;;;;;105.82;79.22;;;3.00;99.90;;;;;;5057681;28;20331;-84
2022/01/15 19:22:35;;;;;;;98.68;71.82;;;3.10;99.90;;;;;;5048910;28;20161;-85
2022/01/15 19:25:05;;;;;;;100.10;80.10;;;3.10;99.90;;;;;;5054614;22;20699;-85
2022/01/15 19:34:36;;;;;;;;;;;;;;;;;;;;;
2022/01/15 19:44:30;;;;;;;97.82;60.70;;;3.00;99.90;;;;;;4877612;29;20235;-88
2022/01/15 19:47:54;;;;;;;105.28;77.88;;;2.90;99.90;;;;;;4864722;29;20175;-87
2022/01/15 19:57:04;;;;;;;106.80;83.72;;;2.90;99.90;;;;;;1462074;26;20628;-87
2022/01/15 19:59:59;;;;;;;112.45;100.50;;;2.90;99.90;;;;;;5031279;28;20192;-87
2022/01/15 20:19:17;;;;;;;;;;;;;;;;;;;;;
2022/01/15 20:30:02;;;;;;;105.45;82.88;;;2.90;99.90;;;;;;4965322;28;20206;-87
2022/01/15 20:33:38;;;;;;;;;;;;;;;;;;;;;
2022/01/15 20:37:04;;;;;;;98.35;64.63;;;3.00;99.90;;;;;;4915935;29;20192;-87
2022/01/15 20:40:35;;;;;;;93.85;65.22;;;2.90;99.90;;;;;;4861644;29;20198;-87
2022/01/15 21:00:37;;;;;;;;;;;;;;;;;;;;;
2022/01/15 21:03:41;;;;;;;;;;;;;;;;;;;;;
2022/01/15 21:07:17;;;;;;;99.70;76.00;;;3.00;99.90;;;;;;4955398;29;20187;-87
2022/01/15 21:10:00;;;;;;;;;;;;;;;;;;;;;
2022/01/15 21:13:36;;;;;;;98.88;77.03;;;3.00;99.90;;;;;;4879701;29;20167;-87
2022/01/15 21:27:26;;;;;;;;;;;;;;;;;;;;;
2022/01/15 21:30:33;;;;;;;;;;;;;;;;;;;;;
2022/01/15 21:33:53;;;;;;;;;;;;;;;;;;;;;
2022/01/15 21:37:18;;;;;;;;;;;;;;;;;;;;;
2022/01/15 21:40:30;;;;;;;;;;;;;;;;;;;;;
2022/01/15 21:54:20;;;;;;;95.63;60.80;;;3.20;99.90;;;;;;4841436;29;20183;-87
2022/01/15 21:57:20;;;;;;;;;;;;;;;;;;;;;
2022/01/15 22:00:22;;;;;;;101.18;65.28;;;3.20;99.90;;;;;;4854605;29;20682;-87
2022/01/15 22:02:56;;;;;;;97.95;65.25;;;3.10;99.90;;;;;;4918632;29;20196;-87
2022/01/15 22:06:17;;;;;;;97.85;66.45;;;3.00;99.90;;;;;;4972354;28;20205;-87
2022/01/15 22:09:43;;;;;;;96.15;60.13;;;3.00;99.90;;;;;;4915692;29;20220;-87
2022/01/15 22:16:38;;;;;;;98.88;65.38;;;3.00;99.90;;;;;;4810941;29;20290;-87
2022/01/15 22:19:19;;;;;;;102.13;73.45;;;3.00;99.90;;;;;;4787237;30;20178;-87
2022/01/15 22:22:19;;;;;;;114.35;95.32;;;3.00;99.90;;;;;;4786742;30;20319;-87
2022/01/15 22:24:58;;;;;;;;;;;;;;;;;;;;;
2022/01/15 22:27:55;;;;;;;110.13;85.50;;;3.00;99.90;;;;;;4823279;29;20181;-88
2022/01/15 22:34:52;;;;;;;;;;;;;;;;;;;;;
2022/01/15 22:38:03;;;;;;;98.13;67.03;;;3.00;99.90;;;;;;4878201;29;20239;-87
2022/01/15 22:41:23;;;;;;;101.47;74.55;;;3.00;99.90;;;;;;4935997;29;20176;-87
2022/01/15 22:50:21;;;;;;;101.50;76.85;;;3.00;99.90;;;;;;4954800;29;20670;-87
2022/01/15 22:53:02;;;;;;;106.93;80.97;;;3.00;99.90;;;;;;4946736;28;20185;-88
2022/01/15 22:55:31;;;;;;;99.57;70.05;;;3.10;99.90;;;;;;5014554;28;20182;-87
2022/01/15 22:58:17;;;;;;;110.63;90.53;;;3.00;99.90;;;;;;5013010;28;20162;-87
2022/01/15 23:01:28;;;;;;;102.65;84.30;;;3.10;99.90;;;;;;5014644;28;20169;-87
2022/01/15 23:09:35;;;;;;;102.10;72.78;;;3.10;99.90;;;;;;5031954;28;20278;-87
2022/01/15 23:12:27;;;;;;;;;;;;;;;;;;;;;
2022/01/15 23:19:11;;;;;;;94.22;51.38;;;3.10;99.90;;;;;;4991350;28;20193;-87
2022/01/15 23:28:54;;;;;;;104.53;73.28;;;3.10;99.90;;;;;;4988738;28;20180;-87
2022/01/15 23:31:55;;;;;;;97.72;63.17;;;3.10;99.90;;;;;;4999027;28;20197;-87
2022/01/15 23:35:03;;;;;;;99.65;64.97;;;3.00;99.90;;;;;;5000938;28;20300;-87
2022/01/15 23:38:09;;;;;;;100.28;66.88;;;2.90;99.90;;;;;;5000671;28;20212;-87
2022/01/15 23:41:15;;;;;;;;;;;;;;;;;;;;;
2022/01/15 23:47:13;;;;;;;99.63;66.20;;;3.00;99.90;;;;;;5017582;28;20165;-87
2022/01/15 23:49:57;;;;;;;102.32;74.70;;;2.90;99.90;;;;;;5018121;28;20612;-87
2022/01/15 23:59:25;;;;;;;97.55;65.07;;;3.00;99.90;;;;;;4981079;28;20514;-87
